sensor_id;sensor_type;location;lat;lon;timestamp;temperature;humidity
36586;DHT22;22591;48.314;11.562;2022-11-11T00:00:17;4.50;99.90
36586;DHT22;22591;48.314;11.562;2022-11-11T00:02:43;4.40;99.90
36586;DHT22;22591;48.314;11.562;2022-11-11T00:05:08;4.40;99.90
36586;DHT22;22591;48.314;11.562;2022-11-11T00:07:34;4.40;99.90
36586;DHT22;22591;48.314;11.562;2022-11-11T00:09:59;4.40;99.90
36586;DHT22;22591;48.314;11.562;2022-11-11T00:12:25;4.30;99.90
36586;DHT22;22591;48.314;11.562;2022-11-11T00:14:50;4.30;99.90
36586;DHT22;22591;48.314;11.562;2022-11-11T00:17:16;4.20;99.90
36586;DHT22;22591;48.314;11.562;2022-11-11T00:20:00;4.20;99.90
36586;DHT22;22591;48.314;11.562;2022-11-11T00:22:44;4.20;99.90
36586;DHT22;22591;48.314;11.562;2022-11-11T00:25:28;4.20;99.90
36586;DHT22;22591;48.314;11.562;2022-11-11T00:27:54;4.30;99.90
36586;DHT22;22591;48.314;11.562;2022-11-11T00:30:19;4.40;99.90
36586;DHT22;22591;48.314;11.562;2022-11-11T00:32:45;4.40;99.90
36586;DHT22;22591;48.314;11.562;2022-11-11T00:35:10;4.40;99.90
36586;DHT22;22591;48.314;11.562;2022-11-11T00:37:54;4.50;99.90
36586;DHT22;22591;48.314;11.562;2022-11-11T00:40:30;4.50;99.90
36586;DHT22;22591;48.314;11.562;2022-11-11T00:42:56;4.50;99.90
36586;DHT22;22591;48.314;11.562;2022-11-11T00:45:21;4.60;99.90
36586;DHT22;22591;48.314;11.562;2022-11-11T00:47:46;4.60;99.90
36586;DHT22;22591;48.314;11.562;2022-11-11T00:50:30;4.60;99.90
36586;DHT22;22591;48.314;11.562;2022-11-11T00:53:18;4.50;99.90
36586;DHT22;22591;48.314;11.562;2022-11-11T00:55:44;4.50;99.90
36586;DHT22;22591;48.314;11.562;2022-11-11T00:58:09;4.40;99.90
36586;DHT22;22591;48.314;11.562;2022-11-11T01:00:35;4.30;99.90
36586;DHT22;22591;48.314;11.562;2022-11-11T01:03:00;4.20;99.90
36586;DHT22;22591;48.314;11.562;2022-11-11T01:05:26;4.20;99.90
36586;DHT22;22591;48.314;11.562;2022-11-11T01:07:52;4.20;99.90
36586;DHT22;22591;48.314;11.562;2022-11-11T01:10:19;4.10;99.90
36586;DHT22;22591;48.314;11.562;2022-11-11T01:13:14;4.10;99.90
36586;DHT22;22591;48.314;11.562;2022-11-11T01:15:41;4.00;99.90
36586;DHT22;22591;48.314;11.562;2022-11-11T01:18:08;4.10;99.90
36586;DHT22;22591;48.314;11.562;2022-11-11T01:20:34;4.10;99.90
36586;DHT22;22591;48.314;11.562;2022-11-11T01:23:03;4.00;99.90
36586;DHT22;22591;48.314;11.562;2022-11-11T01:25:32;3.90;99.90
36586;DHT22;22591;48.314;11.562;2022-11-11T01:27:57;3.90;99.90
36586;DHT22;22591;48.314;11.562;2022-11-11T01:30:23;3.90;99.90
36586;DHT22;22591;48.314;11.562;2022-11-11T01:32:48;3.90;99.90
36586;DHT22;22591;48.314;11.562;2022-11-11T01:35:14;4.00;99.90
36586;DHT22;22591;48.314;11.562;2022-11-11T01:37:39;4.00;99.90
36586;DHT22;22591;48.314;11.562;2022-11-11T01:40:06;3.90;99.90
36586;DHT22;22591;48.314;11.562;2022-11-11T01:42:45;3.90;99.90
36586;DHT22;22591;48.314;11.562;2022-11-11T01:51:28;3.60;99.90
36586;DHT22;22591;48.314;11.562;2022-11-11T01:54:00;3.60;99.90
36586;DHT22;22591;48.314;11.562;2022-11-11T01:56:27;3.60;99.90
36586;DHT22;22591;48.314;11.562;2022-11-11T01:58:55;3.50;99.90
36586;DHT22;22591;48.314;11.562;2022-11-11T02:01:22;3.50;99.90
36586;DHT22;22591;48.314;11.562;2022-11-11T02:03:50;3.50;99.90
36586;DHT22;22591;48.314;11.562;2022-11-11T02:06:35;3.50;99.90
36586;DHT22;22591;48.314;11.562;2022-11-11T02:09:03;3.40;99.90
36586;DHT22;22591;48.314;11.562;2022-11-11T02:11:30;3.40;99.90
36586;DHT22;22591;48.314;11.562;2022-11-11T02:14:16;3.40;99.90
36586;DHT22;22591;48.314;11.562;2022-11-11T02:17:01;3.40;99.90
36586;DHT22;22591;48.314;11.562;2022-11-11T02:19:47;3.40;99.90
36586;DHT22;22591;48.314;11.562;2022-11-11T02:22:19;3.30;99.90
36586;DHT22;22591;48.314;11.562;2022-11-11T02:24:46;3.30;99.90
36586;DHT22;22591;48.314;11.562;2022-11-11T02:27:15;3.30;99.90
36586;DHT22;22591;48.314;11.562;2022-11-11T02:29:42;3.20;99.90
36586;DHT22;22591;48.314;11.562;2022-11-11T02:32:10;3.20;99.90
36586;DHT22;22591;48.314;11.562;2022-11-11T02:34:36;3.30;99.90
36586;DHT22;22591;48.314;11.562;2022-11-11T02:37:04;3.20;99.90
36586;DHT22;22591;48.314;11.562;2022-11-11T02:39:31;3.20;99.90
36586;DHT22;22591;48.314;11.562;2022-11-11T02:41:58;3.20;99.90
36586;DHT22;22591;48.314;11.562;2022-11-11T02:44:25;3.20;99.90
36586;DHT22;22591;48.314;11.562;2022-11-11T02:46:51;3.20;99.90
36586;DHT22;22591;48.314;11.562;2022-11-11T02:49:17;3.10;99.90
36586;DHT22;22591;48.314;11.562;2022-11-11T02:51:42;3.10;99.90
36586;DHT22;22591;48.314;11.562;2022-11-11T02:54:08;3.10;99.90
36586;DHT22;22591;48.314;11.562;2022-11-11T02:56:33;3.00;99.90
36586;DHT22;22591;48.314;11.562;2022-11-11T02:59:17;2.90;99.90
36586;DHT22;22591;48.314;11.562;2022-11-11T03:01:43;2.90;99.90
36586;DHT22;22591;48.314;11.562;2022-11-11T03:04:09;2.90;99.90
36586;DHT22;22591;48.314;11.562;2022-11-11T03:06:34;2.80;99.90
36586;DHT22;22591;48.314;11.562;2022-11-11T03:09:00;2.80;99.90
36586;DHT22;22591;48.314;11.562;2022-11-11T03:11:25;2.80;99.90
36586;DHT22;22591;48.314;11.562;2022-11-11T03:13:57;2.70;99.90
36586;DHT22;22591;48.314;11.562;2022-11-11T03:16:24;2.70;99.90
36586;DHT22;22591;48.314;11.562;2022-11-11T03:19:08;2.70;99.90
36586;DHT22;22591;48.314;11.562;2022-11-11T03:21:34;2.70;99.90
36586;DHT22;22591;48.314;11.562;2022-11-11T03:23:59;2.70;99.90
36586;DHT22;22591;48.314;11.562;2022-11-11T03:26:25;2.60;99.90
36586;DHT22;22591;48.314;11.562;2022-11-11T03:28:51;2.60;99.90
36586;DHT22;22591;48.314;11.562;2022-11-11T03:31:16;2.60;99.90
36586;DHT22;22591;48.314;11.562;2022-11-11T03:33:42;2.50;99.90
36586;DHT22;22591;48.314;11.562;2022-11-11T03:36:08;2.50;99.90
36586;DHT22;22591;48.314;11.562;2022-11-11T03:38:34;2.50;99.90
36586;DHT22;22591;48.314;11.562;2022-11-11T03:40:59;2.50;99.90
36586;DHT22;22591;48.314;11.562;2022-11-11T03:43:31;2.50;99.90
36586;DHT22;22591;48.314;11.562;2022-11-11T03:45:59;2.50;99.90
36586;DHT22;22591;48.314;11.562;2022-11-11T03:48:27;2.60;99.90
36586;DHT22;22591;48.314;11.562;2022-11-11T03:50:53;2.50;99.90
36586;DHT22;22591;48.314;11.562;2022-11-11T03:53:20;2.50;99.90
36586;DHT22;22591;48.314;11.562;2022-11-11T03:55:46;2.60;99.90
36586;DHT22;22591;48.314;11.562;2022-11-11T03:58:12;2.60;99.90
36586;DHT22;22591;48.314;11.562;2022-11-11T04:00:38;2.60;99.90
36586;DHT22;22591;48.314;11.562;2022-11-11T04:05:53;2.70;99.90
36586;DHT22;22591;48.314;11.562;2022-11-11T04:08:37;2.70;99.90
36586;DHT22;22591;48.314;11.562;2022-11-11T04:11:26;2.70;99.90
36586;DHT22;22591;48.314;11.562;2022-11-11T04:13:53;2.70;99.90
36586;DHT22;22591;48.314;11.562;2022-11-11T04:16:39;2.80;99.90
36586;DHT22;22591;48.314;11.562;2022-11-11T04:19:04;2.80;99.90
36586;DHT22;22591;48.314;11.562;2022-11-11T04:21:49;2.70;99.90
36586;DHT22;22591;48.314;11.562;2022-11-11T04:24:17;2.70;99.90
36586;DHT22;22591;48.314;11.562;2022-11-11T04:27:06;2.60;99.90
36586;DHT22;22591;48.314;11.562;2022-11-11T04:29:32;2.60;99.90
36586;DHT22;22591;48.314;11.562;2022-11-11T04:34:42;2.60;99.90
36586;DHT22;22591;48.314;11.562;2022-11-11T04:37:09;2.70;99.90
36586;DHT22;22591;48.314;11.562;2022-11-11T04:39:35;2.70;99.90
36586;DHT22;22591;48.314;11.562;2022-11-11T04:42:19;2.80;99.90
36586;DHT22;22591;48.314;11.562;2022-11-11T04:44:45;2.80;99.90
36586;DHT22;22591;48.314;11.562;2022-11-11T04:47:29;2.80;99.90
36586;DHT22;22591;48.314;11.562;2022-11-11T04:49:54;2.80;99.90
36586;DHT22;22591;48.314;11.562;2022-11-11T04:52:20;2.90;99.90
36586;DHT22;22591;48.314;11.562;2022-11-11T04:54:52;2.90;99.90
36586;DHT22;22591;48.314;11.562;2022-11-11T04:57:40;2.90;99.90
36586;DHT22;22591;48.314;11.562;2022-11-11T05:00:08;2.90;99.90
36586;DHT22;22591;48.314;11.562;2022-11-11T05:02:33;2.90;99.90
36586;DHT22;22591;48.314;11.562;2022-11-11T05:05:18;2.90;99.90
36586;DHT22;22591;48.314;11.562;2022-11-11T05:07:44;2.90;99.90
36586;DHT22;22591;48.314;11.562;2022-11-11T05:10:28;3.00;99.90
36586;DHT22;22591;48.314;11.562;2022-11-11T05:12:53;2.90;99.90
36586;DHT22;22591;48.314;11.562;2022-11-11T05:15:41;2.90;99.90
36586;DHT22;22591;48.314;11.562;2022-11-11T05:18:24;2.90;99.90
36586;DHT22;22591;48.314;11.562;2022-11-11T05:21:14;2.90;99.90
36586;DHT22;22591;48.314;11.562;2022-11-11T05:23:47;2.80;99.90
36586;DHT22;22591;48.314;11.562;2022-11-11T05:26:31;2.80;99.90
36586;DHT22;22591;48.314;11.562;2022-11-11T05:28:57;2.70;99.90
36586;DHT22;22591;48.314;11.562;2022-11-11T05:31:22;2.70;99.90
36586;DHT22;22591;48.314;11.562;2022-11-11T05:33:48;2.70;99.90
36586;DHT22;22591;48.314;11.562;2022-11-11T05:36:13;2.70;99.90
36586;DHT22;22591;48.314;11.562;2022-11-11T05:38:39;2.70;99.90
36586;DHT22;22591;48.314;11.562;2022-11-11T05:41:05;2.70;99.90
36586;DHT22;22591;48.314;11.562;2022-11-11T05:43:31;2.70;99.90
36586;DHT22;22591;48.314;11.562;2022-11-11T05:45:57;2.70;99.90
36586;DHT22;22591;48.314;11.562;2022-11-11T05:48:22;2.80;99.90
36586;DHT22;22591;48.314;11.562;2022-11-11T05:50:48;2.80;99.90
36586;DHT22;22591;48.314;11.562;2022-11-11T05:53:13;2.90;99.90
36586;DHT22;22591;48.314;11.562;2022-11-11T05:55:39;2.90;99.90
36586;DHT22;22591;48.314;11.562;2022-11-11T05:58:05;2.80;99.90
36586;DHT22;22591;48.314;11.562;2022-11-11T06:00:30;2.90;99.90
36586;DHT22;22591;48.314;11.562;2022-11-11T06:03:03;2.90;99.90
36586;DHT22;22591;48.314;11.562;2022-11-11T06:05:30;2.90;99.90
36586;DHT22;22591;48.314;11.562;2022-11-11T06:07:55;2.90;99.90
36586;DHT22;22591;48.314;11.562;2022-11-11T06:10:22;2.90;99.90
36586;DHT22;22591;48.314;11.562;2022-11-11T06:12:57;2.90;99.90
36586;DHT22;22591;48.314;11.562;2022-11-11T06:15:35;2.80;99.90
36586;DHT22;22591;48.314;11.562;2022-11-11T06:18:02;2.80;99.90
36586;DHT22;22591;48.314;11.562;2022-11-11T06:20:29;2.90;99.90
36586;DHT22;22591;48.314;11.562;2022-11-11T06:22:55;2.90;99.90
36586;DHT22;22591;48.314;11.562;2022-11-11T06:25:21;3.00;99.90
36586;DHT22;22591;48.314;11.562;2022-11-11T06:28:05;3.00;99.90
36586;DHT22;22591;48.314;11.562;2022-11-11T06:30:31;3.10;99.90
36586;DHT22;22591;48.314;11.562;2022-11-11T06:32:56;3.20;99.90
36586;DHT22;22591;48.314;11.562;2022-11-11T06:35:22;3.20;99.90
36586;DHT22;22591;48.314;11.562;2022-11-11T06:37:47;3.30;99.90
36586;DHT22;22591;48.314;11.562;2022-11-11T06:40:13;3.30;99.90
36586;DHT22;22591;48.314;11.562;2022-11-11T06:42:39;3.40;99.90
36586;DHT22;22591;48.314;11.562;2022-11-11T06:45:05;3.40;99.90
36586;DHT22;22591;48.314;11.562;2022-11-11T06:47:31;3.40;99.90
36586;DHT22;22591;48.314;11.562;2022-11-11T06:49:56;3.40;99.90
36586;DHT22;22591;48.314;11.562;2022-11-11T06:52:22;3.40;99.90
36586;DHT22;22591;48.314;11.562;2022-11-11T06:54:47;3.50;99.90
36586;DHT22;22591;48.314;11.562;2022-11-11T06:57:13;3.40;99.90
36586;DHT22;22591;48.314;11.562;2022-11-11T06:59:38;3.30;99.90
36586;DHT22;22591;48.314;11.562;2022-11-11T07:02:04;3.40;99.90
36586;DHT22;22591;48.314;11.562;2022-11-11T07:04:29;3.40;99.90
36586;DHT22;22591;48.314;11.562;2022-11-11T07:06:55;3.30;99.90
36586;DHT22;22591;48.314;11.562;2022-11-11T07:09:20;3.40;99.90
36586;DHT22;22591;48.314;11.562;2022-11-11T07:11:47;3.40;99.90
36586;DHT22;22591;48.314;11.562;2022-11-11T07:14:13;3.50;99.90
36586;DHT22;22591;48.314;11.562;2022-11-11T07:16:41;3.60;99.90
36586;DHT22;22591;48.314;11.562;2022-11-11T07:19:06;3.70;99.90
36586;DHT22;22591;48.314;11.562;2022-11-11T07:21:32;3.80;99.90
36586;DHT22;22591;48.314;11.562;2022-11-11T07:24:00;4.00;99.90
36586;DHT22;22591;48.314;11.562;2022-11-11T07:26:25;4.10;99.90
36586;DHT22;22591;48.314;11.562;2022-11-11T07:28:51;4.20;99.90
36586;DHT22;22591;48.314;11.562;2022-11-11T07:31:16;4.30;99.90
36586;DHT22;22591;48.314;11.562;2022-11-11T07:33:42;4.30;99.90
36586;DHT22;22591;48.314;11.562;2022-11-11T07:36:08;4.30;99.90
36586;DHT22;22591;48.314;11.562;2022-11-11T07:38:33;4.20;99.90
36586;DHT22;22591;48.314;11.562;2022-11-11T07:40:59;4.20;99.90
36586;DHT22;22591;48.314;11.562;2022-11-11T07:43:24;4.20;99.90
36586;DHT22;22591;48.314;11.562;2022-11-11T07:45:50;4.20;99.90
36586;DHT22;22591;48.314;11.562;2022-11-11T07:48:16;4.20;99.90
36586;DHT22;22591;48.314;11.562;2022-11-11T07:50:41;4.30;99.90
36586;DHT22;22591;48.314;11.562;2022-11-11T07:53:07;4.30;99.90
36586;DHT22;22591;48.314;11.562;2022-11-11T07:55:32;4.30;99.90
36586;DHT22;22591;48.314;11.562;2022-11-11T07:57:58;4.30;99.90
36586;DHT22;22591;48.314;11.562;2022-11-11T08:00:24;4.40;99.90
36586;DHT22;22591;48.314;11.562;2022-11-11T08:02:49;4.60;99.90
36586;DHT22;22591;48.314;11.562;2022-11-11T08:05:15;4.60;99.90
36586;DHT22;22591;48.314;11.562;2022-11-11T08:07:41;4.60;99.90
36586;DHT22;22591;48.314;11.562;2022-11-11T08:10:07;4.60;99.90
36586;DHT22;22591;48.314;11.562;2022-11-11T08:12:33;4.50;99.90
36586;DHT22;22591;48.314;11.562;2022-11-11T08:15:17;4.50;99.90
36586;DHT22;22591;48.314;11.562;2022-11-11T08:17:43;4.50;99.90
36586;DHT22;22591;48.314;11.562;2022-11-11T08:20:10;4.40;99.90
36586;DHT22;22591;48.314;11.562;2022-11-11T08:22:40;4.60;99.90
36586;DHT22;22591;48.314;11.562;2022-11-11T08:25:08;4.60;99.90
36586;DHT22;22591;48.314;11.562;2022-11-11T08:27:35;4.90;99.90
36586;DHT22;22591;48.314;11.562;2022-11-11T08:30:01;4.90;99.90
36586;DHT22;22591;48.314;11.562;2022-11-11T08:32:27;4.90;99.90
36586;DHT22;22591;48.314;11.562;2022-11-11T08:34:52;5.00;99.90
36586;DHT22;22591;48.314;11.562;2022-11-11T08:37:18;5.00;99.90
36586;DHT22;22591;48.314;11.562;2022-11-11T08:39:43;5.10;99.90
36586;DHT22;22591;48.314;11.562;2022-11-11T08:42:09;5.00;99.90
36586;DHT22;22591;48.314;11.562;2022-11-11T08:44:34;5.10;99.90
36586;DHT22;22591;48.314;11.562;2022-11-11T08:47:00;5.10;99.90
36586;DHT22;22591;48.314;11.562;2022-11-11T08:49:25;5.10;99.90
36586;DHT22;22591;48.314;11.562;2022-11-11T08:51:51;5.20;99.90
36586;DHT22;22591;48.314;11.562;2022-11-11T08:54:18;5.20;99.90
36586;DHT22;22591;48.314;11.562;2022-11-11T08:56:43;5.40;99.90
36586;DHT22;22591;48.314;11.562;2022-11-11T08:59:09;5.40;99.90
36586;DHT22;22591;48.314;11.562;2022-11-11T09:01:35;5.60;99.90
36586;DHT22;22591;48.314;11.562;2022-11-11T09:04:01;5.80;99.90
36586;DHT22;22591;48.314;11.562;2022-11-11T09:06:27;6.00;99.90
36586;DHT22;22591;48.314;11.562;2022-11-11T09:08:53;6.20;99.90
36586;DHT22;22591;48.314;11.562;2022-11-11T09:11:19;6.40;99.90
36586;DHT22;22591;48.314;11.562;2022-11-11T09:13:46;6.70;99.90
36586;DHT22;22591;48.314;11.562;2022-11-11T09:16:12;6.90;99.90
36586;DHT22;22591;48.314;11.562;2022-11-11T09:18:38;7.00;99.90
36586;DHT22;22591;48.314;11.562;2022-11-11T09:21:04;7.10;99.90
36586;DHT22;22591;48.314;11.562;2022-11-11T09:23:30;7.30;99.90
36586;DHT22;22591;48.314;11.562;2022-11-11T09:25:56;7.30;99.90
36586;DHT22;22591;48.314;11.562;2022-11-11T09:28:24;7.40;99.90
36586;DHT22;22591;48.314;11.562;2022-11-11T09:30:49;7.50;99.90
36586;DHT22;22591;48.314;11.562;2022-11-11T09:33:15;7.50;99.90
36586;DHT22;22591;48.314;11.562;2022-11-11T09:35:42;7.40;99.90
36586;DHT22;22591;48.314;11.562;2022-11-11T09:38:08;7.40;99.90
36586;DHT22;22591;48.314;11.562;2022-11-11T09:43:52;7.50;99.90
36586;DHT22;22591;48.314;11.562;2022-11-11T09:46:33;7.50;99.90
36586;DHT22;22591;48.314;11.562;2022-11-11T09:54:29;7.40;99.90
36586;DHT22;22591;48.314;11.562;2022-11-11T09:56:57;7.50;99.90
36586;DHT22;22591;48.314;11.562;2022-11-11T09:59:28;7.60;99.90
36586;DHT22;22591;48.314;11.562;2022-11-11T10:01:58;7.70;99.90
36586;DHT22;22591;48.314;11.562;2022-11-11T10:07:36;8.00;99.90
36586;DHT22;22591;48.314;11.562;2022-11-11T10:12:38;8.50;99.90
36586;DHT22;22591;48.314;11.562;2022-11-11T10:15:12;8.80;99.90
36586;DHT22;22591;48.314;11.562;2022-11-11T10:20:14;9.20;99.90
36586;DHT22;22591;48.314;11.562;2022-11-11T10:22:43;9.20;99.90
36586;DHT22;22591;48.314;11.562;2022-11-11T10:27:43;9.60;99.90
36586;DHT22;22591;48.314;11.562;2022-11-11T10:32:46;9.70;99.90
36586;DHT22;22591;48.314;11.562;2022-11-11T10:35:22;9.60;99.90
36586;DHT22;22591;48.314;11.562;2022-11-11T10:38:00;9.70;99.90
36586;DHT22;22591;48.314;11.562;2022-11-11T10:40:45;9.80;99.90
36586;DHT22;22591;48.314;11.562;2022-11-11T10:43:30;10.00;99.90
36586;DHT22;22591;48.314;11.562;2022-11-11T10:48:58;10.10;99.90
36586;DHT22;22591;48.314;11.562;2022-11-11T10:51:28;10.10;99.90
36586;DHT22;22591;48.314;11.562;2022-11-11T10:54:04;10.10;99.90
36586;DHT22;22591;48.314;11.562;2022-11-11T10:56:40;10.40;99.90
36586;DHT22;22591;48.314;11.562;2022-11-11T11:04:19;10.60;99.90
36586;DHT22;22591;48.314;11.562;2022-11-11T11:06:49;10.60;99.90
36586;DHT22;22591;48.314;11.562;2022-11-11T11:09:22;10.70;99.90
36586;DHT22;22591;48.314;11.562;2022-11-11T11:12:13;10.80;99.90
36586;DHT22;22591;48.314;11.562;2022-11-11T11:14:45;11.00;99.90
36586;DHT22;22591;48.314;11.562;2022-11-11T11:17:27;11.00;99.90
36586;DHT22;22591;48.314;11.562;2022-11-11T11:20:13;11.10;99.90
36586;DHT22;22591;48.314;11.562;2022-11-11T11:22:50;11.20;99.90
36586;DHT22;22591;48.314;11.562;2022-11-11T11:25:17;11.40;99.90
36586;DHT22;22591;48.314;11.562;2022-11-11T11:27:44;11.50;99.90
36586;DHT22;22591;48.314;11.562;2022-11-11T11:32:37;11.30;99.90
36586;DHT22;22591;48.314;11.562;2022-11-11T11:35:03;11.40;99.90
36586;DHT22;22591;48.314;11.562;2022-11-11T11:37:28;11.50;99.90
36586;DHT22;22591;48.314;11.562;2022-11-11T11:40:06;11.40;99.90
36586;DHT22;22591;48.314;11.562;2022-11-11T11:42:37;11.30;99.90
36586;DHT22;22591;48.314;11.562;2022-11-11T11:45:26;11.30;99.90
36586;DHT22;22591;48.314;11.562;2022-11-11T11:48:24;11.30;99.90
36586;DHT22;22591;48.314;11.562;2022-11-11T11:51:17;11.50;99.90
36586;DHT22;22591;48.314;11.562;2022-11-11T11:54:03;11.60;99.90
36586;DHT22;22591;48.314;11.562;2022-11-11T11:56:41;11.60;99.90
36586;DHT22;22591;48.314;11.562;2022-11-11T11:59:21;11.70;99.90
36586;DHT22;22591;48.314;11.562;2022-11-11T12:13:05;11.50;99.90
36586;DHT22;22591;48.314;11.562;2022-11-11T12:18:49;11.50;99.90
36586;DHT22;22591;48.314;11.562;2022-11-11T12:21:18;11.50;99.90
36586;DHT22;22591;48.314;11.562;2022-11-11T12:26:27;11.50;99.90
36586;DHT22;22591;48.314;11.562;2022-11-11T12:31:45;11.40;99.90
36586;DHT22;22591;48.314;11.562;2022-11-11T12:37:07;11.40;99.90
36586;DHT22;22591;48.314;11.562;2022-11-11T12:40:47;11.40;99.90
36586;DHT22;22591;48.314;11.562;2022-11-11T12:46:05;11.50;99.90
36586;DHT22;22591;48.314;11.562;2022-11-11T12:48:50;11.50;99.90
36586;DHT22;22591;48.314;11.562;2022-11-11T12:56:46;11.50;99.90
36586;DHT22;22591;48.314;11.562;2022-11-11T12:59:53;11.50;99.90
36586;DHT22;22591;48.314;11.562;2022-11-11T13:02:46;11.50;99.90
36586;DHT22;22591;48.314;11.562;2022-11-11T13:05:37;11.40;99.90
36586;DHT22;22591;48.314;11.562;2022-11-11T13:09:05;11.40;99.90
36586;DHT22;22591;48.314;11.562;2022-11-11T13:16:42;11.80;99.90
36586;DHT22;22591;48.314;11.562;2022-11-11T13:22:01;12.00;99.90
36586;DHT22;22591;48.314;11.562;2022-11-11T13:24:31;12.20;99.90
36586;DHT22;22591;48.314;11.562;2022-11-11T13:27:06;12.30;99.90
36586;DHT22;22591;48.314;11.562;2022-11-11T13:30:00;12.40;99.90
36586;DHT22;22591;48.314;11.562;2022-11-11T13:32:32;12.60;99.90
36586;DHT22;22591;48.314;11.562;2022-11-11T13:34:59;12.70;99.90
36586;DHT22;22591;48.314;11.562;2022-11-11T13:37:31;12.90;99.90
36586;DHT22;22591;48.314;11.562;2022-11-11T13:40:06;12.90;99.90
36586;DHT22;22591;48.314;11.562;2022-11-11T13:42:45;13.00;99.90
36586;DHT22;22591;48.314;11.562;2022-11-11T13:45:38;13.00;99.90
36586;DHT22;22591;48.314;11.562;2022-11-11T13:48:05;12.90;99.90
36586;DHT22;22591;48.314;11.562;2022-11-11T13:50:37;12.70;99.90
36586;DHT22;22591;48.314;11.562;2022-11-11T13:53:05;12.70;99.90
36586;DHT22;22591;48.314;11.562;2022-11-11T13:55:40;12.60;99.90
36586;DHT22;22591;48.314;11.562;2022-11-11T13:58:16;12.60;99.90
36586;DHT22;22591;48.314;11.562;2022-11-11T14:00:45;12.60;99.90
36586;DHT22;22591;48.314;11.562;2022-11-11T14:05:43;12.40;99.90
36586;DHT22;22591;48.314;11.562;2022-11-11T14:08:09;12.30;99.90
36586;DHT22;22591;48.314;11.562;2022-11-11T14:15:51;12.10;99.90
36586;DHT22;22591;48.314;11.562;2022-11-11T14:20:51;12.00;99.90
36586;DHT22;22591;48.314;11.562;2022-11-11T14:25:50;11.80;99.90
36586;DHT22;22591;48.314;11.562;2022-11-11T14:30:51;11.60;99.90
36586;DHT22;22591;48.314;11.562;2022-11-11T14:39:13;11.20;99.90
36586;DHT22;22591;48.314;11.562;2022-11-11T14:49:54;10.90;99.90
36586;DHT22;22591;48.314;11.562;2022-11-11T14:55:03;10.80;99.90
36586;DHT22;22591;48.314;11.562;2022-11-11T14:57:51;10.80;99.90
36586;DHT22;22591;48.314;11.562;2022-11-11T15:00:24;10.70;99.90
36586;DHT22;22591;48.314;11.562;2022-11-11T15:21:32;9.80;99.90
36586;DHT22;22591;48.314;11.562;2022-11-11T15:27:05;9.50;99.90
36586;DHT22;22591;48.314;11.562;2022-11-11T15:37:55;9.10;99.90
36586;DHT22;22591;48.314;11.562;2022-11-11T15:40:23;8.90;99.90
36586;DHT22;22591;48.314;11.562;2022-11-11T15:42:50;8.80;99.90
36586;DHT22;22591;48.314;11.562;2022-11-11T15:45:20;8.70;99.90
36586;DHT22;22591;48.314;11.562;2022-11-11T15:47:48;8.70;99.90
36586;DHT22;22591;48.314;11.562;2022-11-11T15:50:28;8.60;99.90
36586;DHT22;22591;48.314;11.562;2022-11-11T15:52:56;8.50;99.90
36586;DHT22;22591;48.314;11.562;2022-11-11T15:55:31;8.50;99.90
36586;DHT22;22591;48.314;11.562;2022-11-11T15:58:16;8.50;99.90
36586;DHT22;22591;48.314;11.562;2022-11-11T16:00:44;8.40;99.90
36586;DHT22;22591;48.314;11.562;2022-11-11T16:03:19;8.40;99.90
36586;DHT22;22591;48.314;11.562;2022-11-11T16:05:45;8.30;99.90
36586;DHT22;22591;48.314;11.562;2022-11-11T16:08:17;8.30;99.90
36586;DHT22;22591;48.314;11.562;2022-11-11T16:10:45;8.20;99.90
36586;DHT22;22591;48.314;11.562;2022-11-11T16:13:22;8.20;99.90
36586;DHT22;22591;48.314;11.562;2022-11-11T16:15:58;8.20;99.90
36586;DHT22;22591;48.314;11.562;2022-11-11T16:18:33;8.10;99.90
36586;DHT22;22591;48.314;11.562;2022-11-11T16:21:24;8.10;99.90
36586;DHT22;22591;48.314;11.562;2022-11-11T16:23:52;8.00;99.90
36586;DHT22;22591;48.314;11.562;2022-11-11T16:26:18;7.90;99.90
36586;DHT22;22591;48.314;11.562;2022-11-11T16:28:51;7.90;99.90
36586;DHT22;22591;48.314;11.562;2022-11-11T16:33:59;7.80;99.90
36586;DHT22;22591;48.314;11.562;2022-11-11T16:36:24;7.70;99.90
36586;DHT22;22591;48.314;11.562;2022-11-11T16:38:50;7.60;99.90
36586;DHT22;22591;48.314;11.562;2022-11-11T16:41:26;7.70;99.90
36586;DHT22;22591;48.314;11.562;2022-11-11T16:43:54;7.60;99.90
36586;DHT22;22591;48.314;11.562;2022-11-11T16:51:46;7.40;99.90
36586;DHT22;22591;48.314;11.562;2022-11-11T16:54:19;7.40;99.90
36586;DHT22;22591;48.314;11.562;2022-11-11T16:56:49;7.30;99.90
36586;DHT22;22591;48.314;11.562;2022-11-11T16:59:38;7.20;99.90
36586;DHT22;22591;48.314;11.562;2022-11-11T17:02:17;7.10;99.90
36586;DHT22;22591;48.314;11.562;2022-11-11T17:04:50;7.20;99.90
36586;DHT22;22591;48.314;11.562;2022-11-11T17:12:38;7.20;99.90
36586;DHT22;22591;48.314;11.562;2022-11-11T17:15:05;7.20;99.90
36586;DHT22;22591;48.314;11.562;2022-11-11T17:17:31;7.20;99.90
36586;DHT22;22591;48.314;11.562;2022-11-11T17:20:00;7.30;99.90
36586;DHT22;22591;48.314;11.562;2022-11-11T17:22:26;7.20;99.90
36586;DHT22;22591;48.314;11.562;2022-11-11T17:24:52;7.20;99.90
36586;DHT22;22591;48.314;11.562;2022-11-11T17:27:17;7.10;99.90
36586;DHT22;22591;48.314;11.562;2022-11-11T17:29:43;7.10;99.90
36586;DHT22;22591;48.314;11.562;2022-11-11T17:32:08;7.10;99.90
36586;DHT22;22591;48.314;11.562;2022-11-11T17:34:34;7.20;99.90
36586;DHT22;22591;48.314;11.562;2022-11-11T17:37:00;7.20;99.90
36586;DHT22;22591;48.314;11.562;2022-11-11T17:39:25;7.20;99.90
36586;DHT22;22591;48.314;11.562;2022-11-11T17:41:51;7.20;99.90
36586;DHT22;22591;48.314;11.562;2022-11-11T17:44:16;7.20;99.90
36586;DHT22;22591;48.314;11.562;2022-11-11T17:46:42;7.20;99.90
36586;DHT22;22591;48.314;11.562;2022-11-11T17:49:08;7.20;99.90
36586;DHT22;22591;48.314;11.562;2022-11-11T17:51:33;7.20;99.90
36586;DHT22;22591;48.314;11.562;2022-11-11T17:53:59;7.20;99.90
36586;DHT22;22591;48.314;11.562;2022-11-11T17:56:24;7.10;99.90
36586;DHT22;22591;48.314;11.562;2022-11-11T17:58:51;7.00;99.90
36586;DHT22;22591;48.314;11.562;2022-11-11T18:01:17;7.00;99.90
36586;DHT22;22591;48.314;11.562;2022-11-11T18:03:43;7.00;99.90
36586;DHT22;22591;48.314;11.562;2022-11-11T18:06:09;6.90;99.90
36586;DHT22;22591;48.314;11.562;2022-11-11T18:08:35;6.90;99.90
36586;DHT22;22591;48.314;11.562;2022-11-11T18:11:02;6.90;99.90
36586;DHT22;22591;48.314;11.562;2022-11-11T18:13:29;6.90;99.90
36586;DHT22;22591;48.314;11.562;2022-11-11T18:15:54;6.90;99.90
36586;DHT22;22591;48.314;11.562;2022-11-11T18:18:23;6.90;99.90
36586;DHT22;22591;48.314;11.562;2022-11-11T18:20:49;6.90;99.90
36586;DHT22;22591;48.314;11.562;2022-11-11T18:23:14;6.90;99.90
36586;DHT22;22591;48.314;11.562;2022-11-11T18:25:40;6.90;99.90